sensor_id;sensor_type;location;lat;lon;timestamp;temperature;humidity
75281;HTU21D;63874;47.230;39.620;2023-10-19T00:01:16;6.82;55.92
75281;HTU21D;63874;47.230;39.620;2023-10-19T00:03:43;6.79;55.90
75281;HTU21D;63874;47.230;39.620;2023-10-19T00:06:10;6.76;55.95
75281;HTU21D;63874;47.230;39.620;2023-10-19T00:08:37;6.73;55.94
75281;HTU21D;63874;47.230;39.620;2023-10-19T00:11:10;6.72;55.75
75281;HTU21D;63874;47.230;39.620;2023-10-19T00:13:47;6.69;55.71
75281;HTU21D;63874;47.230;39.620;2023-10-19T00:16:16;6.64;55.74
75281;HTU21D;63874;47.230;39.620;2023-10-19T00:18:46;6.60;55.78
75281;HTU21D;63874;47.230;39.620;2023-10-19T00:21:18;6.56;55.68
75281;HTU21D;63874;47.230;39.620;2023-10-19T00:23:50;6.53;55.65
75281;HTU21D;63874;47.230;39.620;2023-10-19T00:26:17;6.51;55.58
75281;HTU21D;63874;47.230;39.620;2023-10-19T00:29:05;6.48;55.44
75281;HTU21D;63874;47.230;39.620;2023-10-19T00:31:51;6.43;55.43
75281;HTU21D;63874;47.230;39.620;2023-10-19T00:34:16;6.39;55.39
75281;HTU21D;63874;47.230;39.620;2023-10-19T00:36:43;6.36;55.46
75281;HTU21D;63874;47.230;39.620;2023-10-19T00:39:11;6.34;55.50
75281;HTU21D;63874;47.230;39.620;2023-10-19T00:41:46;6.29;55.58
75281;HTU21D;63874;47.230;39.620;2023-10-19T00:44:13;6.28;55.63
75281;HTU21D;63874;47.230;39.620;2023-10-19T00:46:50;6.29;55.62
75281;HTU21D;63874;47.230;39.620;2023-10-19T00:49:26;6.27;55.58
75281;HTU21D;63874;47.230;39.620;2023-10-19T00:51:55;6.24;55.67
75281;HTU21D;63874;47.230;39.620;2023-10-19T00:54:32;6.23;55.75
75281;HTU21D;63874;47.230;39.620;2023-10-19T00:57:03;6.20;55.78
75281;HTU21D;63874;47.230;39.620;2023-10-19T00:59:40;6.15;55.84
75281;HTU21D;63874;47.230;39.620;2023-10-19T01:02:13;6.10;55.90
75281;HTU21D;63874;47.230;39.620;2023-10-19T01:04:49;6.04;56.00
75281;HTU21D;63874;47.230;39.620;2023-10-19T01:07:20;5.99;56.20
75281;HTU21D;63874;47.230;39.620;2023-10-19T01:10:15;5.97;56.54
75281;HTU21D;63874;47.230;39.620;2023-10-19T01:12:51;5.99;56.45
75281;HTU21D;63874;47.230;39.620;2023-10-19T01:15:19;6.01;56.44
75281;HTU21D;63874;47.230;39.620;2023-10-19T01:17:56;5.98;56.47
75281;HTU21D;63874;47.230;39.620;2023-10-19T01:20:29;5.96;56.54
75281;HTU21D;63874;47.230;39.620;2023-10-19T01:23:01;5.95;56.57
75281;HTU21D;63874;47.230;39.620;2023-10-19T01:25:58;5.92;56.60
75281;HTU21D;63874;47.230;39.620;2023-10-19T01:28:37;5.89;56.63
75281;HTU21D;63874;47.230;39.620;2023-10-19T01:31:14;5.89;56.66
75281;HTU21D;63874;47.230;39.620;2023-10-19T01:33:49;5.84;56.67
75281;HTU21D;63874;47.230;39.620;2023-10-19T01:36:16;5.81;56.75
75281;HTU21D;63874;47.230;39.620;2023-10-19T01:38:47;5.79;56.84
75281;HTU21D;63874;47.230;39.620;2023-10-19T01:41:14;5.77;57.00
75281;HTU21D;63874;47.230;39.620;2023-10-19T01:43:46;5.76;57.08
75281;HTU21D;63874;47.230;39.620;2023-10-19T01:46:14;5.74;57.13
75281;HTU21D;63874;47.230;39.620;2023-10-19T01:48:49;5.75;57.18
75281;HTU21D;63874;47.230;39.620;2023-10-19T01:51:22;5.71;57.19
75281;HTU21D;63874;47.230;39.620;2023-10-19T01:53:50;5.71;57.20
75281;HTU21D;63874;47.230;39.620;2023-10-19T01:56:18;5.71;57.19
75281;HTU21D;63874;47.230;39.620;2023-10-19T01:58:48;5.68;57.23
75281;HTU21D;63874;47.230;39.620;2023-10-19T02:01:19;5.65;57.26
75281;HTU21D;63874;47.230;39.620;2023-10-19T02:03:47;5.64;57.48
75281;HTU21D;63874;47.230;39.620;2023-10-19T02:06:23;5.65;57.38
75281;HTU21D;63874;47.230;39.620;2023-10-19T02:09:22;5.62;57.35
75281;HTU21D;63874;47.230;39.620;2023-10-19T02:12:00;5.60;57.38
75281;HTU21D;63874;47.230;39.620;2023-10-19T02:14:27;5.57;57.50
75281;HTU21D;63874;47.230;39.620;2023-10-19T02:16:59;5.59;57.58
75281;HTU21D;63874;47.230;39.620;2023-10-19T02:19:27;5.59;57.57
75281;HTU21D;63874;47.230;39.620;2023-10-19T02:22:01;5.60;57.61
75281;HTU21D;63874;47.230;39.620;2023-10-19T02:24:35;5.63;57.56
75281;HTU21D;63874;47.230;39.620;2023-10-19T02:27:01;5.66;57.51
75281;HTU21D;63874;47.230;39.620;2023-10-19T02:29:27;5.68;57.44
75281;HTU21D;63874;47.230;39.620;2023-10-19T02:31:55;5.68;57.40
75281;HTU21D;63874;47.230;39.620;2023-10-19T02:34:22;5.68;57.36
75281;HTU21D;63874;47.230;39.620;2023-10-19T02:36:50;5.68;57.41
75281;HTU21D;63874;47.230;39.620;2023-10-19T02:39:16;5.65;57.44
75281;HTU21D;63874;47.230;39.620;2023-10-19T02:41:47;5.63;57.56
75281;HTU21D;63874;47.230;39.620;2023-10-19T02:44:15;5.61;57.68
75281;HTU21D;63874;47.230;39.620;2023-10-19T02:46:41;5.57;57.81
75281;HTU21D;63874;47.230;39.620;2023-10-19T02:49:10;5.53;57.93
75281;HTU21D;63874;47.230;39.620;2023-10-19T02:51:42;5.51;58.01
75281;HTU21D;63874;47.230;39.620;2023-10-19T02:54:16;5.47;58.04
75281;HTU21D;63874;47.230;39.620;2023-10-19T02:56:52;5.40;58.06
75281;HTU21D;63874;47.230;39.620;2023-10-19T02:59:21;5.34;58.19
75281;HTU21D;63874;47.230;39.620;2023-10-19T03:01:52;5.27;58.31
75281;HTU21D;63874;47.230;39.620;2023-10-19T03:04:27;5.22;58.38
75281;HTU21D;63874;47.230;39.620;2023-10-19T03:06:56;5.17;58.50
75281;HTU21D;63874;47.230;39.620;2023-10-19T03:09:23;5.11;58.61
75281;HTU21D;63874;47.230;39.620;2023-10-19T03:11:56;5.07;58.74
75281;HTU21D;63874;47.230;39.620;2023-10-19T03:14:35;5.04;58.89
75281;HTU21D;63874;47.230;39.620;2023-10-19T03:17:03;5.04;59.13
75281;HTU21D;63874;47.230;39.620;2023-10-19T03:19:30;5.02;59.41
75281;HTU21D;63874;47.230;39.620;2023-10-19T03:21:56;5.02;59.57
75281;HTU21D;63874;47.230;39.620;2023-10-19T03:24:26;5.04;59.54
75281;HTU21D;63874;47.230;39.620;2023-10-19T03:27:02;5.06;59.51
75281;HTU21D;63874;47.230;39.620;2023-10-19T03:29:38;5.04;59.54
75281;HTU21D;63874;47.230;39.620;2023-10-19T03:32:05;5.05;59.52
75281;HTU21D;63874;47.230;39.620;2023-10-19T03:34:35;4.98;59.53
75281;HTU21D;63874;47.230;39.620;2023-10-19T03:37:02;4.95;59.60
75281;HTU21D;63874;47.230;39.620;2023-10-19T03:39:33;4.93;59.68
75281;HTU21D;63874;47.230;39.620;2023-10-19T03:42:00;4.89;59.69
75281;HTU21D;63874;47.230;39.620;2023-10-19T03:44:26;4.89;59.70
75281;HTU21D;63874;47.230;39.620;2023-10-19T03:46:53;4.86;59.69
75281;HTU21D;63874;47.230;39.620;2023-10-19T03:49:22;4.82;59.75
75281;HTU21D;63874;47.230;39.620;2023-10-19T03:51:49;4.78;59.90
75281;HTU21D;63874;47.230;39.620;2023-10-19T03:54:25;4.77;59.99
75281;HTU21D;63874;47.230;39.620;2023-10-19T03:56:54;4.74;60.04
75281;HTU21D;63874;47.230;39.620;2023-10-19T03:59:22;4.72;60.17
75281;HTU21D;63874;47.230;39.620;2023-10-19T04:01:55;4.72;60.35
75281;HTU21D;63874;47.230;39.620;2023-10-19T04:04:24;4.74;60.51
75281;HTU21D;63874;47.230;39.620;2023-10-19T04:06:50;4.76;60.67
75281;HTU21D;63874;47.230;39.620;2023-10-19T04:09:25;4.82;60.82
75281;HTU21D;63874;47.230;39.620;2023-10-19T04:11:55;4.89;60.96
75281;HTU21D;63874;47.230;39.620;2023-10-19T04:14:21;4.93;60.93
75281;HTU21D;63874;47.230;39.620;2023-10-19T04:16:49;5.00;60.97
75281;HTU21D;63874;47.230;39.620;2023-10-19T04:19:15;5.07;61.02
75281;HTU21D;63874;47.230;39.620;2023-10-19T04:21:42;5.12;61.10
75281;HTU21D;63874;47.230;39.620;2023-10-19T04:24:12;5.19;61.13
75281;HTU21D;63874;47.230;39.620;2023-10-19T04:26:39;5.25;61.10
75281;HTU21D;63874;47.230;39.620;2023-10-19T04:29:06;5.32;61.17
75281;HTU21D;63874;47.230;39.620;2023-10-19T04:31:52;5.39;61.11
75281;HTU21D;63874;47.230;39.620;2023-10-19T04:34:22;5.41;61.03
75281;HTU21D;63874;47.230;39.620;2023-10-19T04:36:50;5.47;60.89
75281;HTU21D;63874;47.230;39.620;2023-10-19T04:39:16;5.50;60.70
75281;HTU21D;63874;47.230;39.620;2023-10-19T04:41:45;5.57;60.60
75281;HTU21D;63874;47.230;39.620;2023-10-19T04:44:14;5.63;60.49
75281;HTU21D;63874;47.230;39.620;2023-10-19T04:46:43;5.72;60.40
75281;HTU21D;63874;47.230;39.620;2023-10-19T04:49:09;5.81;60.31
75281;HTU21D;63874;47.230;39.620;2023-10-19T04:51:36;5.89;60.27
75281;HTU21D;63874;47.230;39.620;2023-10-19T04:54:05;5.98;60.22
75281;HTU21D;63874;47.230;39.620;2023-10-19T04:56:37;6.10;60.13
75281;HTU21D;63874;47.230;39.620;2023-10-19T04:59:03;6.21;59.99
75281;HTU21D;63874;47.230;39.620;2023-10-19T05:01:29;6.34;59.84
75281;HTU21D;63874;47.230;39.620;2023-10-19T05:03:55;6.44;59.63
75281;HTU21D;63874;47.230;39.620;2023-10-19T05:06:22;6.56;59.50
75281;HTU21D;63874;47.230;39.620;2023-10-19T05:08:48;6.67;59.37
75281;HTU21D;63874;47.230;39.620;2023-10-19T05:11:14;6.80;59.21
75281;HTU21D;63874;47.230;39.620;2023-10-19T05:13:39;6.93;59.06
75281;HTU21D;63874;47.230;39.620;2023-10-19T05:16:05;7.03;58.95
75281;HTU21D;63874;47.230;39.620;2023-10-19T05:18:32;7.15;58.90
75281;HTU21D;63874;47.230;39.620;2023-10-19T05:20:59;7.28;58.78
75281;HTU21D;63874;47.230;39.620;2023-10-19T05:23:27;7.39;58.61
75281;HTU21D;63874;47.230;39.620;2023-10-19T05:26:04;7.53;58.46
75281;HTU21D;63874;47.230;39.620;2023-10-19T05:28:30;7.62;58.31
75281;HTU21D;63874;47.230;39.620;2023-10-19T05:30:57;7.71;58.21
75281;HTU21D;63874;47.230;39.620;2023-10-19T05:33:27;7.81;58.04
75281;HTU21D;63874;47.230;39.620;2023-10-19T05:35:55;7.89;57.84
75281;HTU21D;63874;47.230;39.620;2023-10-19T05:38:20;7.96;57.66
75281;HTU21D;63874;47.230;39.620;2023-10-19T05:40:49;8.03;57.65
75281;HTU21D;63874;47.230;39.620;2023-10-19T05:43:15;8.11;57.50
75281;HTU21D;63874;47.230;39.620;2023-10-19T05:45:43;8.19;57.43
75281;HTU21D;63874;47.230;39.620;2023-10-19T05:48:08;8.28;57.42
75281;HTU21D;63874;47.230;39.620;2023-10-19T05:50:35;8.38;57.32
75281;HTU21D;63874;47.230;39.620;2023-10-19T05:53:02;8.49;57.08
75281;HTU21D;63874;47.230;39.620;2023-10-19T05:55:29;8.60;57.07
75281;HTU21D;63874;47.230;39.620;2023-10-19T05:57:55;8.67;57.02
75281;HTU21D;63874;47.230;39.620;2023-10-19T06:00:22;8.78;56.83
75281;HTU21D;63874;47.230;39.620;2023-10-19T06:02:52;8.88;56.68
75281;HTU21D;63874;47.230;39.620;2023-10-19T06:05:20;8.97;56.56
75281;HTU21D;63874;47.230;39.620;2023-10-19T06:07:47;9.07;56.32
75281;HTU21D;63874;47.230;39.620;2023-10-19T06:10:17;9.16;56.20
75281;HTU21D;63874;47.230;39.620;2023-10-19T06:12:49;9.26;56.16
75281;HTU21D;63874;47.230;39.620;2023-10-19T06:15:22;9.38;56.07
75281;HTU21D;63874;47.230;39.620;2023-10-19T06:17:50;9.51;55.93
75281;HTU21D;63874;47.230;39.620;2023-10-19T06:20:17;9.62;55.88
75281;HTU21D;63874;47.230;39.620;2023-10-19T06:22:58;9.74;55.62
75281;HTU21D;63874;47.230;39.620;2023-10-19T06:25:33;9.84;55.65
75281;HTU21D;63874;47.230;39.620;2023-10-19T06:28:01;9.95;55.52
75281;HTU21D;63874;47.230;39.620;2023-10-19T06:30:28;10.05;55.48
75281;HTU21D;63874;47.230;39.620;2023-10-19T06:32:56;10.19;55.13
75281;HTU21D;63874;47.230;39.620;2023-10-19T06:35:30;10.28;55.12
75281;HTU21D;63874;47.230;39.620;2023-10-19T06:38:00;10.39;54.95
75281;HTU21D;63874;47.230;39.620;2023-10-19T06:40:27;10.56;54.90
75281;HTU21D;63874;47.230;39.620;2023-10-19T06:42:57;10.75;54.48
75281;HTU21D;63874;47.230;39.620;2023-10-19T06:45:24;10.87;54.01
75281;HTU21D;63874;47.230;39.620;2023-10-19T06:47:52;10.90;53.56
75281;HTU21D;63874;47.230;39.620;2023-10-19T06:50:21;10.87;53.74
75281;HTU21D;63874;47.230;39.620;2023-10-19T06:52:48;10.89;53.43
75281;HTU21D;63874;47.230;39.620;2023-10-19T06:55:16;10.89;53.48
75281;HTU21D;63874;47.230;39.620;2023-10-19T06:57:47;10.95;53.30
75281;HTU21D;63874;47.230;39.620;2023-10-19T07:00:21;11.01;53.43
75281;HTU21D;63874;47.230;39.620;2023-10-19T07:02:50;11.10;52.87
75281;HTU21D;63874;47.230;39.620;2023-10-19T07:05:19;11.12;52.74
75281;HTU21D;63874;47.230;39.620;2023-10-19T07:07:51;11.16;52.40
75281;HTU21D;63874;47.230;39.620;2023-10-19T07:10:23;11.18;52.37
75281;HTU21D;63874;47.230;39.620;2023-10-19T07:12:54;11.19;52.26
75281;HTU21D;63874;47.230;39.620;2023-10-19T07:15:21;11.26;52.29
75281;HTU21D;63874;47.230;39.620;2023-10-19T07:17:48;11.31;52.12
75281;HTU21D;63874;47.230;39.620;2023-10-19T07:20:16;11.34;51.92
75281;HTU21D;63874;47.230;39.620;2023-10-19T07:22:53;11.43;51.79
75281;HTU21D;63874;47.230;39.620;2023-10-19T07:25:19;11.51;51.20
75281;HTU21D;63874;47.230;39.620;2023-10-19T07:27:49;11.55;51.44
75281;HTU21D;63874;47.230;39.620;2023-10-19T07:30:16;11.62;51.46
75281;HTU21D;63874;47.230;39.620;2023-10-19T07:32:46;11.70;50.53
75281;HTU21D;63874;47.230;39.620;2023-10-19T07:35:17;11.76;50.73
75281;HTU21D;63874;47.230;39.620;2023-10-19T07:37:42;11.84;50.64
75281;HTU21D;63874;47.230;39.620;2023-10-19T07:40:10;11.89;50.29
75281;HTU21D;63874;47.230;39.620;2023-10-19T07:42:39;11.96;50.01
75281;HTU21D;63874;47.230;39.620;2023-10-19T07:45:05;12.01;49.77
75281;HTU21D;63874;47.230;39.620;2023-10-19T07:47:34;12.04;49.40
75281;HTU21D;63874;47.230;39.620;2023-10-19T07:50:00;12.11;49.85
75281;HTU21D;63874;47.230;39.620;2023-10-19T07:52:28;12.17;49.92
75281;HTU21D;63874;47.230;39.620;2023-10-19T07:54:54;12.21;49.43
75281;HTU21D;63874;47.230;39.620;2023-10-19T07:57:19;12.21;48.70
75281;HTU21D;63874;47.230;39.620;2023-10-19T07:59:47;12.21;48.62
75281;HTU21D;63874;47.230;39.620;2023-10-19T08:02:13;12.23;48.69
75281;HTU21D;63874;47.230;39.620;2023-10-19T08:04:38;12.26;48.73
75281;HTU21D;63874;47.230;39.620;2023-10-19T08:07:04;12.35;48.63
75281;HTU21D;63874;47.230;39.620;2023-10-19T08:09:30;12.45;48.37
75281;HTU21D;63874;47.230;39.620;2023-10-19T08:12:00;12.60;47.67
75281;HTU21D;63874;47.230;39.620;2023-10-19T08:14:28;12.73;47.70
75281;HTU21D;63874;47.230;39.620;2023-10-19T08:16:56;12.84;47.22
75281;HTU21D;63874;47.230;39.620;2023-10-19T08:19:22;12.90;46.01
75281;HTU21D;63874;47.230;39.620;2023-10-19T08:21:48;12.93;46.09
75281;HTU21D;63874;47.230;39.620;2023-10-19T08:24:14;12.94;45.66
75281;HTU21D;63874;47.230;39.620;2023-10-19T08:26:43;13.03;45.73
75281;HTU21D;63874;47.230;39.620;2023-10-19T08:29:10;13.06;45.32
75281;HTU21D;63874;47.230;39.620;2023-10-19T08:31:42;13.12;45.60
75281;HTU21D;63874;47.230;39.620;2023-10-19T08:34:10;13.23;44.69
75281;HTU21D;63874;47.230;39.620;2023-10-19T08:36:39;13.36;44.27
75281;HTU21D;63874;47.230;39.620;2023-10-19T08:39:06;13.48;43.51
75281;HTU21D;63874;47.230;39.620;2023-10-19T08:41:33;13.58;44.16
75281;HTU21D;63874;47.230;39.620;2023-10-19T08:44:03;13.70;43.55
75281;HTU21D;63874;47.230;39.620;2023-10-19T08:46:29;13.79;43.84
75281;HTU21D;63874;47.230;39.620;2023-10-19T08:48:57;13.89;43.44
75281;HTU21D;63874;47.230;39.620;2023-10-19T08:51:24;14.00;43.17
75281;HTU21D;63874;47.230;39.620;2023-10-19T08:53:52;14.19;43.02
75281;HTU21D;63874;47.230;39.620;2023-10-19T08:56:19;14.44;42.59
75281;HTU21D;63874;47.230;39.620;2023-10-19T08:58:49;14.79;42.05
75281;HTU21D;63874;47.230;39.620;2023-10-19T09:01:18;15.59;40.62
75281;HTU21D;63874;47.230;39.620;2023-10-19T09:03:45;16.87;37.62
75281;HTU21D;63874;47.230;39.620;2023-10-19T09:06:12;18.21;37.87
75281;HTU21D;63874;47.230;39.620;2023-10-19T09:08:39;19.45;36.83
75281;HTU21D;63874;47.230;39.620;2023-10-19T09:11:07;20.40;30.41
75281;HTU21D;63874;47.230;39.620;2023-10-19T09:13:46;21.25;31.43
75281;HTU21D;63874;47.230;39.620;2023-10-19T09:16:13;22.03;30.52
75281;HTU21D;63874;47.230;39.620;2023-10-19T09:18:39;22.92;30.42
75281;HTU21D;63874;47.230;39.620;2023-10-19T09:21:06;23.54;24.77
75281;HTU21D;63874;47.230;39.620;2023-10-19T09:23:52;24.12;28.12
75281;HTU21D;63874;47.230;39.620;2023-10-19T09:26:36;24.82;25.47
75281;HTU21D;63874;47.230;39.620;2023-10-19T09:29:02;25.01;23.15
75281;HTU21D;63874;47.230;39.620;2023-10-19T09:31:29;25.16;24.61
75281;HTU21D;63874;47.230;39.620;2023-10-19T09:33:56;25.36;23.54
75281;HTU21D;63874;47.230;39.620;2023-10-19T09:36:24;26.11;24.14
75281;HTU21D;63874;47.230;39.620;2023-10-19T09:38:52;26.42;18.12
75281;HTU21D;63874;47.230;39.620;2023-10-19T09:41:18;26.58;22.16
75281;HTU21D;63874;47.230;39.620;2023-10-19T09:43:45;27.06;22.06
75281;HTU21D;63874;47.230;39.620;2023-10-19T09:46:11;27.43;21.08
75281;HTU21D;63874;47.230;39.620;2023-10-19T09:48:41;27.57;20.54
75281;HTU21D;63874;47.230;39.620;2023-10-19T09:51:07;27.55;20.71
75281;HTU21D;63874;47.230;39.620;2023-10-19T09:53:34;27.91;20.35
75281;HTU21D;63874;47.230;39.620;2023-10-19T09:56:01;28.34;19.98
75281;HTU21D;63874;47.230;39.620;2023-10-19T09:58:27;29.00;19.60
75281;HTU21D;63874;47.230;39.620;2023-10-19T10:00:55;29.24;17.74
75281;HTU21D;63874;47.230;39.620;2023-10-19T10:06:07;29.73;17.35
75281;HTU21D;63874;47.230;39.620;2023-10-19T10:08:35;29.93;17.22
75281;HTU21D;63874;47.230;39.620;2023-10-19T10:11:18;30.07;15.97
75281;HTU21D;63874;47.230;39.620;2023-10-19T10:13:44;30.16;16.50
75281;HTU21D;63874;47.230;39.620;2023-10-19T10:16:14;30.31;15.92
75281;HTU21D;63874;47.230;39.620;2023-10-19T10:18:43;30.64;16.51
75281;HTU21D;63874;47.230;39.620;2023-10-19T10:21:11;30.75;16.87
75281;HTU21D;63874;47.230;39.620;2023-10-19T10:23:44;30.50;16.61
75281;HTU21D;63874;47.230;39.620;2023-10-19T10:26:10;30.40;16.77
75281;HTU21D;63874;47.230;39.620;2023-10-19T10:28:36;30.32;16.55
75281;HTU21D;63874;47.230;39.620;2023-10-19T10:31:18;30.48;17.51
75281;HTU21D;63874;47.230;39.620;2023-10-19T10:33:45;30.26;16.77
75281;HTU21D;63874;47.230;39.620;2023-10-19T10:36:12;30.39;15.65
75281;HTU21D;63874;47.230;39.620;2023-10-19T10:38:40;30.32;16.36
75281;HTU21D;63874;47.230;39.620;2023-10-19T10:41:06;30.40;16.46
75281;HTU21D;63874;47.230;39.620;2023-10-19T10:43:56;30.28;14.76
75281;HTU21D;63874;47.230;39.620;2023-10-19T10:46:21;29.62;15.59
75281;HTU21D;63874;47.230;39.620;2023-10-19T10:48:47;28.08;16.37
75281;HTU21D;63874;47.230;39.620;2023-10-19T10:54:07;23.99;19.33
75281;HTU21D;63874;47.230;39.620;2023-10-19T10:56:39;22.43;20.08
75281;HTU21D;63874;47.230;39.620;2023-10-19T10:59:14;21.21;20.92
75281;HTU21D;63874;47.230;39.620;2023-10-19T11:01:40;20.15;21.98
75281;HTU21D;63874;47.230;39.620;2023-10-19T11:04:08;19.18;23.05
75281;HTU21D;63874;47.230;39.620;2023-10-19T11:06:48;18.40;23.92
75281;HTU21D;63874;47.230;39.620;2023-10-19T11:09:15;17.69;24.91
75281;HTU21D;63874;47.230;39.620;2023-10-19T11:11:45;17.10;25.94
75281;HTU21D;63874;47.230;39.620;2023-10-19T11:14:11;16.71;26.64
75281;HTU21D;63874;47.230;39.620;2023-10-19T11:16:37;16.36;27.36
75281;HTU21D;63874;47.230;39.620;2023-10-19T11:19:05;16.05;28.10
75281;HTU21D;63874;47.230;39.620;2023-10-19T11:21:31;15.80;28.93
75281;HTU21D;63874;47.230;39.620;2023-10-19T11:23:57;15.59;29.66
75281;HTU21D;63874;47.230;39.620;2023-10-19T11:26:24;15.42;30.20
75281;HTU21D;63874;47.230;39.620;2023-10-19T11:29:01;15.28;30.79
75281;HTU21D;63874;47.230;39.620;2023-10-19T11:31:27;15.16;31.17
75281;HTU21D;63874;47.230;39.620;2023-10-19T11:33:54;15.06;31.61
75281;HTU21D;63874;47.230;39.620;2023-10-19T11:36:24;14.98;32.01
75281;HTU21D;63874;47.230;39.620;2023-10-19T11:38:52;14.91;32.32
75281;HTU21D;63874;47.230;39.620;2023-10-19T11:41:18;14.82;32.62
75281;HTU21D;63874;47.230;39.620;2023-10-19T11:43:48;14.77;32.83
75281;HTU21D;63874;47.230;39.620;2023-10-19T11:46:14;14.73;33.02
75281;HTU21D;63874;47.230;39.620;2023-10-19T11:48:41;14.64;33.09
75281;HTU21D;63874;47.230;39.620;2023-10-19T11:51:09;14.58;33.35
75281;HTU21D;63874;47.230;39.620;2023-10-19T11:53:39;14.56;33.67
75281;HTU21D;63874;47.230;39.620;2023-10-19T11:56:07;14.47;33.99
75281;HTU21D;63874;47.230;39.620;2023-10-19T11:58:34;14.41;34.44
75281;HTU21D;63874;47.230;39.620;2023-10-19T12:01:08;14.37;34.55
75281;HTU21D;63874;47.230;39.620;2023-10-19T12:03:38;14.36;34.70
75281;HTU21D;63874;47.230;39.620;2023-10-19T12:06:06;14.37;34.57
75281;HTU21D;63874;47.230;39.620;2023-10-19T12:08:36;14.33;34.78
75281;HTU21D;63874;47.230;39.620;2023-10-19T12:11:03;14.30;35.00
75281;HTU21D;63874;47.230;39.620;2023-10-19T12:13:30;14.28;35.23
75281;HTU21D;63874;47.230;39.620;2023-10-19T12:15:57;14.27;35.44
75281;HTU21D;63874;47.230;39.620;2023-10-19T12:18:26;14.25;35.70
75281;HTU21D;63874;47.230;39.620;2023-10-19T12:20:54;14.22;35.86
75281;HTU21D;63874;47.230;39.620;2023-10-19T12:23:25;14.17;35.98
75281;HTU21D;63874;47.230;39.620;2023-10-19T12:25:51;14.10;36.36
75281;HTU21D;63874;47.230;39.620;2023-10-19T12:28:18;14.06;36.61
75281;HTU21D;63874;47.230;39.620;2023-10-19T12:30:44;14.03;36.85
75281;HTU21D;63874;47.230;39.620;2023-10-19T12:33:10;13.97;37.25
75281;HTU21D;63874;47.230;39.620;2023-10-19T12:35:43;13.96;37.57
75281;HTU21D;63874;47.230;39.620;2023-10-19T12:38:26;13.93;38.11
75281;HTU21D;63874;47.230;39.620;2023-10-19T12:40:54;13.89;38.20
75281;HTU21D;63874;47.230;39.620;2023-10-19T12:43:20;13.85;38.63
75281;HTU21D;63874;47.230;39.620;2023-10-19T12:45:49;13.81;38.87
75281;HTU21D;63874;47.230;39.620;2023-10-19T12:48:23;13.76;39.15
75281;HTU21D;63874;47.230;39.620;2023-10-19T12:50:55;13.75;39.31
75281;HTU21D;63874;47.230;39.620;2023-10-19T12:53:21;13.71;39.47
75281;HTU21D;63874;47.230;39.620;2023-10-19T12:55:50;13.68;39.68
75281;HTU21D;63874;47.230;39.620;2023-10-19T12:58:18;13.63;39.76
75281;HTU21D;63874;47.230;39.620;2023-10-19T13:00:47;13.60;39.74
75281;HTU21D;63874;47.230;39.620;2023-10-19T13:03:24;13.54;39.67
75281;HTU21D;63874;47.230;39.620;2023-10-19T13:05:56;13.46;39.63
75281;HTU21D;63874;47.230;39.620;2023-10-19T13:08:24;13.40;39.68
75281;HTU21D;63874;47.230;39.620;2023-10-19T13:10:55;13.35;39.85
75281;HTU21D;63874;47.230;39.620;2023-10-19T13:13:24;13.33;40.25
75281;HTU21D;63874;47.230;39.620;2023-10-19T13:15:50;13.29;40.53
75281;HTU21D;63874;47.230;39.620;2023-10-19T13:18:18;13.26;40.76
75281;HTU21D;63874;47.230;39.620;2023-10-19T13:20:50;13.21;41.04
75281;HTU21D;63874;47.230;39.620;2023-10-19T13:23:22;13.18;41.26
75281;HTU21D;63874;47.230;39.620;2023-10-19T13:25:49;13.15;41.38
75281;HTU21D;63874;47.230;39.620;2023-10-19T13:28:34;13.08;41.39
75281;HTU21D;63874;47.230;39.620;2023-10-19T13:31:04;13.03;41.57
75281;HTU21D;63874;47.230;39.620;2023-10-19T13:33:30;12.99;41.73
75281;HTU21D;63874;47.230;39.620;2023-10-19T13:35:57;12.96;41.84
75281;HTU21D;63874;47.230;39.620;2023-10-19T13:38:24;12.91;41.93
75281;HTU21D;63874;47.230;39.620;2023-10-19T13:40:49;12.87;42.19
75281;HTU21D;63874;47.230;39.620;2023-10-19T13:43:16;12.85;42.25
75281;HTU21D;63874;47.230;39.620;2023-10-19T13:45:44;12.79;42.25
75281;HTU21D;63874;47.230;39.620;2023-10-19T13:48:14;12.74;42.36
75281;HTU21D;63874;47.230;39.620;2023-10-19T13:50:48;12.67;42.45
75281;HTU21D;63874;47.230;39.620;2023-10-19T13:53:15;12.64;42.53
75281;HTU21D;63874;47.230;39.620;2023-10-19T13:55:42;12.60;42.51
75281;HTU21D;63874;47.230;39.620;2023-10-19T13:58:10;12.55;42.69
75281;HTU21D;63874;47.230;39.620;2023-10-19T14:00:36;12.48;43.00
75281;HTU21D;63874;47.230;39.620;2023-10-19T14:03:05;12.44;43.39
75281;HTU21D;63874;47.230;39.620;2023-10-19T14:05:39;12.37;43.70
75281;HTU21D;63874;47.230;39.620;2023-10-19T14:08:06;12.28;44.10
75281;HTU21D;63874;47.230;39.620;2023-10-19T14:10:35;12.21;44.47
75281;HTU21D;63874;47.230;39.620;2023-10-19T14:13:02;12.12;44.80
75281;HTU21D;63874;47.230;39.620;2023-10-19T14:15:28;12.03;44.91
75281;HTU21D;63874;47.230;39.620;2023-10-19T14:17:56;11.96;45.35
75281;HTU21D;63874;47.230;39.620;2023-10-19T14:20:24;11.88;45.56
75281;HTU21D;63874;47.230;39.620;2023-10-19T14:22:50;11.81;46.01
75281;HTU21D;63874;47.230;39.620;2023-10-19T14:25:18;11.74;46.38
75281;HTU21D;63874;47.230;39.620;2023-10-19T14:27:50;11.67;46.56
75281;HTU21D;63874;47.230;39.620;2023-10-19T14:30:24;11.60;46.86
75281;HTU21D;63874;47.230;39.620;2023-10-19T14:32:51;11.55;46.88
75281;HTU21D;63874;47.230;39.620;2023-10-19T14:35:18;11.49;47.29
75281;HTU21D;63874;47.230;39.620;2023-10-19T14:37:48;11.46;47.87
75281;HTU21D;63874;47.230;39.620;2023-10-19T14:40:22;11.42;48.21
75281;HTU21D;63874;47.230;39.620;2023-10-19T14:42:51;11.39;48.60
75281;HTU21D;63874;47.230;39.620;2023-10-19T14:45:22;11.34;48.93
75281;HTU21D;63874;47.230;39.620;2023-10-19T14:47:52;11.31;49.08
75281;HTU21D;63874;47.230;39.620;2023-10-19T14:50:30;11.26;49.15
75281;HTU21D;63874;47.230;39.620;2023-10-19T14:52:59;11.22;49.44
75281;HTU21D;63874;47.230;39.620;2023-10-19T14:55:25;11.19;49.70
75281;HTU21D;63874;47.230;39.620;2023-10-19T14:57:52;11.16;49.76
75281;HTU21D;63874;47.230;39.620;2023-10-19T15:00:19;11.14;50.17
75281;HTU21D;63874;47.230;39.620;2023-10-19T15:02:58;11.13;50.53
75281;HTU21D;63874;47.230;39.620;2023-10-19T15:05:27;11.11;50.66
75281;HTU21D;63874;47.230;39.620;2023-10-19T15:07:54;11.11;51.07
75281;HTU21D;63874;47.230;39.620;2023-10-19T15:10:25;11.12;51.83
75281;HTU21D;63874;47.230;39.620;2023-10-19T15:12:57;11.09;51.95
75281;HTU21D;63874;47.230;39.620;2023-10-19T15:15:28;11.05;52.02
75281;HTU21D;63874;47.230;39.620;2023-10-19T15:17:57;11.02;52.38
75281;HTU21D;63874;47.230;39.620;2023-10-19T15:20:29;10.98;52.49
75281;HTU21D;63874;47.230;39.620;2023-10-19T15:22:59;10.95;52.56
75281;HTU21D;63874;47.230;39.620;2023-10-19T15:25:25;10.92;52.93
75281;HTU21D;63874;47.230;39.620;2023-10-19T15:27:52;10.87;53.16